createdAt,value
2022-12-11T00:00:09.283Z,17.31
2022-12-11T00:03:15.684Z,17.38
2022-12-11T00:06:21.335Z,17.31
2022-12-11T00:09:23.456Z,17.31
2022-12-11T00:12:25.652Z,17.31
2022-12-11T00:15:28.626Z,17.31
2022-12-11T00:18:30.804Z,17.31
2022-12-11T00:21:33.705Z,17.25
2022-12-11T00:24:35.837Z,17.25
2022-12-11T00:27:37.899Z,17.25
2022-12-11T00:30:41.196Z,17.25
2022-12-11T00:33:44.673Z,17.19
2022-12-11T00:36:46.667Z,17.25
2022-12-11T00:39:48.739Z,17.19
2022-12-11T00:42:50.830Z,17.25
2022-12-11T00:45:53.021Z,17.25
2022-12-11T00:48:55.143Z,17.13
2022-12-11T00:51:57.302Z,17.13
2022-12-11T00:54:59.377Z,17.19
2022-12-11T00:58:01.449Z,17.06
2022-12-11T01:01:23.826Z,17.19
2022-12-11T01:04:25.917Z,17.19
2022-12-11T01:07:28.001Z,17.06
2022-12-11T01:10:30.217Z,17.13
2022-12-11T01:13:32.432Z,17.13
2022-12-11T01:16:34.560Z,17.06
2022-12-11T01:19:37.330Z,17.06
2022-12-11T01:22:39.918Z,17.00
2022-12-11T01:25:42.465Z,17.00
2022-12-11T01:28:45.200Z,17.00
2022-12-11T01:31:47.253Z,16.94
2022-12-11T01:34:49.297Z,16.94
2022-12-11T01:37:51.341Z,16.94
2022-12-11T01:40:53.390Z,16.94
2022-12-11T01:44:24.928Z,16.94
2022-12-11T01:47:26.943Z,16.88
2022-12-11T01:50:31.179Z,16.94
2022-12-11T01:53:40.522Z,16.88
2022-12-11T01:56:45.084Z,16.94
2022-12-11T01:59:47.315Z,16.94
2022-12-11T02:02:49.385Z,16.88
2022-12-11T02:05:52.199Z,16.88
2022-12-11T02:08:54.267Z,16.81
2022-12-11T02:12:23.831Z,16.81
2022-12-11T02:15:31.236Z,16.81
2022-12-11T02:19:04.495Z,16.81
2022-12-11T02:22:11.940Z,16.75
2022-12-11T02:25:50.301Z,16.75
2022-12-11T02:29:05.272Z,16.75
2022-12-11T02:32:43.538Z,16.75
2022-12-11T02:35:46.940Z,16.75
2022-12-11T02:38:51.968Z,16.69
2022-12-11T02:41:55.072Z,16.69
2022-12-11T02:45:00.140Z,16.69
2022-12-11T02:48:05.755Z,16.69
2022-12-11T02:51:09.015Z,16.63
2022-12-11T02:54:20.563Z,16.56
2022-12-11T02:57:29.898Z,16.56
2022-12-11T03:00:32.446Z,16.56
2022-12-11T03:03:34.548Z,16.56
2022-12-11T03:06:44.277Z,16.56
2022-12-11T03:09:48.218Z,16.50
2022-12-11T03:12:53.945Z,16.50
2022-12-11T03:16:05.474Z,16.50
2022-12-11T03:19:34.496Z,16.50
2022-12-11T03:23:12.573Z,16.50
2022-12-11T03:26:17.007Z,16.50
2022-12-11T03:29:24.169Z,16.44
2022-12-11T03:32:36.459Z,16.44
2022-12-11T03:35:44.722Z,16.38
2022-12-11T03:39:12.575Z,16.38
2022-12-11T03:42:16.468Z,16.38
2022-12-11T03:45:20.852Z,16.31
2022-12-11T03:48:26.417Z,16.31
2022-12-11T03:51:30.800Z,16.38
2022-12-11T03:54:34.934Z,16.31
2022-12-11T03:57:38.379Z,16.31
2022-12-11T04:00:40.440Z,16.25
2022-12-11T04:03:42.537Z,16.31
2022-12-11T04:06:44.598Z,16.25
2022-12-11T04:09:46.628Z,16.31
2022-12-11T04:12:48.693Z,16.31
2022-12-11T04:15:50.727Z,16.19
2022-12-11T04:19:11.635Z,16.19
2022-12-11T04:22:34.028Z,16.19
2022-12-11T04:25:36.272Z,16.19
2022-12-11T04:28:38.447Z,16.19
2022-12-11T04:31:40.657Z,16.19
2022-12-11T04:34:42.743Z,16.13
2022-12-11T04:37:44.910Z,16.13
2022-12-11T04:40:46.951Z,16.13
2022-12-11T04:43:49.032Z,16.13
2022-12-11T04:46:51.172Z,16.13
2022-12-11T04:49:53.408Z,16.13
2022-12-11T04:52:56.182Z,16.06
2022-12-11T04:55:58.558Z,16.06
2022-12-11T04:59:01.559Z,16.06
2022-12-11T05:02:04.439Z,16.06
2022-12-11T05:05:09.884Z,16.00
2022-12-11T05:08:12.313Z,16.06
2022-12-11T05:11:16.560Z,16.00
2022-12-11T05:14:18.907Z,16.00
2022-12-11T05:17:22.084Z,15.94
2022-12-11T05:20:24.265Z,15.94
2022-12-11T05:23:27.237Z,15.94
2022-12-11T05:26:29.402Z,15.94
2022-12-11T05:29:31.424Z,15.88
2022-12-11T05:32:33.531Z,15.88
2022-12-11T05:35:35.587Z,15.94
2022-12-11T05:38:37.669Z,15.88
2022-12-11T05:41:40.178Z,15.81
2022-12-11T05:44:42.201Z,15.81
2022-12-11T05:47:44.222Z,15.81
2022-12-11T05:50:56.051Z,15.88
2022-12-11T05:53:58.795Z,15.88
2022-12-11T05:57:00.810Z,15.88
2022-12-11T06:00:04.129Z,15.88
2022-12-11T06:03:06.387Z,15.94
2022-12-11T06:06:09.018Z,16.25
2022-12-11T06:09:15.724Z,16.50
2022-12-11T06:12:17.770Z,16.69
2022-12-11T06:15:20.849Z,16.81
2022-12-11T06:18:22.904Z,17.00
2022-12-11T06:21:27.766Z,17.06
2022-12-11T06:24:29.795Z,17.19
2022-12-11T06:27:31.849Z,17.31
2022-12-11T06:30:38.293Z,17.50
2022-12-11T06:33:41.662Z,17.69
2022-12-11T06:36:43.750Z,17.88
2022-12-11T06:39:45.741Z,18.13
2022-12-11T06:42:47.803Z,18.19
2022-12-11T06:45:50.518Z,18.25
2022-12-11T06:48:52.877Z,18.38
2022-12-11T06:51:54.951Z,18.50
2022-12-11T06:54:57.402Z,18.56
2022-12-11T06:57:59.392Z,18.63
2022-12-11T07:01:02.124Z,18.69
2022-12-11T07:04:04.233Z,18.94
2022-12-11T07:07:06.429Z,19.00
2022-12-11T07:10:09.066Z,19.00
2022-12-11T07:13:11.069Z,19.06
2022-12-11T07:16:15.172Z,19.25
2022-12-11T07:19:17.693Z,19.44
2022-12-11T07:22:19.700Z,19.44
2022-12-11T07:25:21.911Z,19.44
2022-12-11T07:28:24.750Z,19.44
2022-12-11T07:31:28.463Z,19.69
2022-12-11T07:34:30.609Z,19.88
2022-12-11T07:37:32.850Z,19.81
2022-12-11T07:40:35.219Z,19.88
2022-12-11T07:43:37.480Z,20.00
2022-12-11T07:46:40.160Z,20.13
2022-12-11T07:49:42.309Z,20.25
2022-12-11T07:52:44.701Z,20.31
2022-12-11T07:55:46.714Z,20.31
2022-12-11T07:58:49.146Z,20.38
2022-12-11T08:01:51.165Z,20.44
2022-12-11T08:04:53.213Z,20.63
2022-12-11T08:07:55.659Z,20.69
2022-12-11T08:11:04.883Z,20.63
2022-12-11T08:14:08.698Z,20.50
2022-12-11T08:17:10.720Z,20.56
2022-12-11T08:20:12.749Z,20.75
2022-12-11T08:23:14.869Z,20.81
2022-12-11T08:26:20.234Z,20.69
2022-12-11T08:29:22.310Z,20.63
2022-12-11T08:32:24.383Z,20.69
2022-12-11T08:35:26.851Z,20.75
2022-12-11T08:38:29.137Z,20.88
2022-12-11T08:41:31.304Z,20.88
2022-12-11T08:44:33.305Z,20.81
2022-12-11T08:47:35.734Z,20.75
2022-12-11T08:50:38.014Z,20.75
2022-12-11T08:53:40.188Z,21.00
2022-12-11T08:56:42.378Z,20.88
2022-12-11T08:59:44.464Z,20.88
2022-12-11T09:02:47.320Z,20.88
2022-12-11T09:05:49.523Z,20.88
2022-12-11T09:08:53.492Z,21.00
2022-12-11T09:11:56.508Z,20.94
2022-12-11T09:14:58.526Z,20.94
2022-12-11T09:18:00.564Z,21.00
2022-12-11T09:21:15.249Z,21.13
2022-12-11T09:24:17.314Z,21.19
2022-12-11T09:27:21.212Z,21.13
2022-12-11T09:30:23.266Z,21.19
2022-12-11T09:33:25.354Z,21.25
2022-12-11T09:36:28.073Z,21.38
2022-12-11T09:39:30.116Z,21.44
2022-12-11T09:42:56.062Z,21.44
2022-12-11T09:46:01.018Z,21.38
2022-12-11T09:49:09.649Z,21.31
2022-12-11T09:52:22.048Z,21.44
2022-12-11T09:55:25.997Z,21.50
2022-12-11T09:58:57.123Z,21.56
2022-12-11T10:02:18.203Z,21.56
2022-12-11T10:05:32.387Z,21.56
2022-12-11T10:08:45.694Z,21.50
2022-12-11T10:12:04.904Z,21.50
2022-12-11T10:15:35.668Z,21.50
2022-12-11T10:18:38.565Z,21.44
2022-12-11T10:21:42.256Z,21.44
2022-12-11T10:28:16.180Z,21.69
2022-12-11T10:31:51.069Z,21.50
2022-12-11T10:35:01.004Z,21.50
2022-12-11T10:38:21.334Z,21.44
2022-12-11T10:41:32.244Z,21.50
2022-12-11T10:44:34.728Z,21.56
2022-12-11T10:47:36.773Z,21.50
2022-12-11T10:50:39.026Z,21.38
2022-12-11T10:53:43.178Z,21.38
2022-12-11T10:56:48.242Z,21.44
2022-12-11T10:59:50.899Z,21.44
2022-12-11T11:02:53.191Z,21.38
2022-12-11T11:06:15.852Z,21.25
2022-12-11T11:09:36.911Z,21.13
2022-12-11T11:12:49.934Z,21.25
2022-12-11T11:16:05.633Z,21.31
2022-12-11T11:19:15.763Z,21.31
2022-12-11T11:22:19.954Z,21.19
2022-12-11T11:25:27.646Z,21.19
2022-12-11T11:28:38.942Z,21.13
2022-12-11T11:31:42.315Z,21.06
2022-12-11T11:34:44.404Z,21.13
2022-12-11T11:37:55.759Z,21.13
2022-12-11T11:41:06.582Z,21.13
2022-12-11T11:44:16.125Z,21.06
2022-12-11T11:47:23.953Z,21.06
2022-12-11T11:50:32.857Z,21.06
2022-12-11T11:53:40.547Z,21.00
2022-12-11T11:56:43.636Z,20.94
2022-12-11T11:59:52.220Z,20.88
2022-12-11T12:03:19.001Z,20.81
2022-12-11T12:06:50.950Z,20.75
2022-12-11T12:10:03.848Z,20.69
2022-12-11T12:13:57.694Z,20.63
2022-12-11T12:17:08.902Z,20.63
2022-12-11T12:20:30.732Z,20.56
2022-12-11T12:23:57.402Z,20.44
2022-12-11T12:27:50.349Z,20.44
2022-12-11T12:30:55.253Z,20.31
2022-12-11T12:34:28.704Z,20.31
2022-12-11T12:37:45.697Z,20.25
2022-12-11T12:41:04.862Z,20.25
2022-12-11T12:44:29.953Z,20.19
2022-12-11T12:47:34.841Z,20.13
2022-12-11T12:50:46.785Z,20.06
2022-12-11T12:53:55.364Z,20.00
2022-12-11T12:56:59.135Z,20.00
2022-12-11T13:00:01.301Z,19.94
2022-12-11T13:03:14.728Z,19.88
2022-12-11T13:06:27.971Z,19.88
2022-12-11T13:09:30.005Z,19.81
2022-12-11T13:12:40.512Z,19.81
2022-12-11T13:15:43.823Z,19.75
2022-12-11T13:18:48.130Z,19.75
2022-12-11T13:22:15.286Z,19.69
2022-12-11T13:25:29.123Z,19.69
2022-12-11T13:28:46.226Z,19.69
2022-12-11T13:31:58.676Z,19.63
2022-12-11T13:35:05.667Z,19.56
2022-12-11T13:38:16.540Z,19.50
2022-12-11T13:41:19.599Z,19.50
2022-12-11T13:44:42.382Z,19.50
2022-12-11T13:47:46.199Z,19.44
2022-12-11T13:50:49.813Z,19.44
2022-12-11T13:54:04.050Z,19.38
2022-12-11T13:57:09.073Z,19.38
2022-12-11T14:00:21.832Z,19.31
2022-12-11T14:03:24.510Z,19.25
2022-12-11T14:06:28.510Z,19.19
2022-12-11T14:09:30.758Z,19.19
2022-12-11T14:12:33.283Z,19.19
2022-12-11T14:15:36.804Z,19.13
2022-12-11T14:18:39.100Z,19.13
2022-12-11T14:21:41.113Z,19.06
2022-12-11T14:24:50.273Z,19.06
2022-12-11T14:27:55.910Z,19.06
2022-12-11T14:31:00.667Z,19.00
2022-12-11T14:34:16.579Z,19.00
2022-12-11T14:37:21.059Z,19.00
2022-12-11T14:40:28.568Z,18.94
2022-12-11T14:43:38.412Z,18.94
2022-12-11T14:46:43.609Z,18.88
2022-12-11T14:49:59.209Z,18.81
2022-12-11T14:53:07.984Z,18.88
2022-12-11T14:56:20.895Z,18.88
2022-12-11T14:59:31.601Z,18.88
2022-12-11T15:02:37.001Z,18.81
2022-12-11T15:05:53.664Z,18.75
2022-12-11T15:08:55.818Z,18.75
2022-12-11T15:12:08.238Z,18.75
2022-12-11T15:15:16.581Z,18.69
2022-12-11T15:18:22.728Z,18.69
2022-12-11T15:21:34.703Z,18.69
2022-12-11T15:24:46.365Z,18.69
2022-12-11T15:27:55.289Z,18.69
2022-12-11T15:31:00.195Z,18.63
2022-12-11T15:34:02.477Z,18.63
2022-12-11T15:37:04.531Z,18.63
2022-12-11T15:40:07.090Z,18.63
2022-12-11T15:43:09.322Z,18.63
2022-12-11T15:46:11.344Z,18.63
2022-12-11T15:49:13.630Z,18.63
2022-12-11T15:52:16.069Z,18.56
2022-12-11T15:55:18.941Z,18.56
2022-12-11T15:58:24.190Z,18.56
2022-12-11T16:01:26.529Z,18.56
2022-12-11T16:04:28.610Z,18.56
2022-12-11T16:07:30.709Z,18.69
2022-12-11T16:10:32.809Z,18.81
2022-12-11T16:13:35.092Z,18.88
2022-12-11T16:16:37.163Z,19.00
2022-12-11T16:19:40.192Z,19.06
2022-12-11T16:22:42.215Z,19.13
2022-12-11T16:25:45.225Z,19.25
2022-12-11T16:28:47.282Z,19.19
2022-12-11T16:31:49.397Z,19.25
2022-12-11T16:34:51.489Z,19.25
2022-12-11T16:37:54.487Z,19.38
2022-12-11T16:41:02.458Z,19.56
2022-12-11T16:44:04.907Z,19.63
2022-12-11T16:47:06.943Z,19.69
2022-12-11T16:50:09.494Z,19.63
2022-12-11T16:53:14.522Z,19.63
2022-12-11T16:56:16.562Z,19.63
2022-12-11T16:59:18.617Z,19.69
2022-12-11T17:02:21.180Z,19.69
2022-12-11T17:05:23.735Z,19.69
2022-12-11T17:08:26.178Z,19.63
2022-12-11T17:11:28.482Z,19.63
2022-12-11T17:14:30.880Z,19.56
2022-12-11T17:17:32.969Z,19.56
2022-12-11T17:20:35.108Z,19.50
2022-12-11T17:23:37.536Z,19.44
2022-12-11T17:26:39.537Z,19.44
2022-12-11T17:29:41.632Z,19.44
2022-12-11T17:32:46.701Z,19.38
2022-12-11T17:35:48.872Z,19.38
2022-12-11T17:38:50.913Z,19.31
2022-12-11T17:41:53.060Z,19.25
2022-12-11T17:44:55.101Z,19.25
2022-12-11T17:47:57.165Z,19.19
2022-12-11T17:51:06.393Z,19.13
2022-12-11T17:54:08.453Z,19.13
2022-12-11T17:57:10.533Z,19.06
2022-12-11T18:00:13.199Z,19.06
2022-12-11T18:03:15.592Z,19.00
2022-12-11T18:06:18.083Z,19.00
2022-12-11T18:09:20.127Z,18.94
2022-12-11T18:12:22.180Z,18.94
2022-12-11T18:15:24.330Z,18.94
2022-12-11T18:18:26.533Z,18.88
2022-12-11T18:21:32.969Z,18.88
2022-12-11T18:24:35.156Z,18.88
2022-12-11T18:27:37.642Z,18.81
2022-12-11T18:30:39.770Z,18.75
2022-12-11T18:33:43.492Z,18.75
2022-12-11T18:36:45.550Z,18.75
2022-12-11T18:39:47.893Z,18.69
2022-12-11T18:42:49.928Z,18.69
2022-12-11T18:45:52.074Z,18.63
2022-12-11T18:48:54.616Z,18.63
2022-12-11T18:51:56.736Z,18.63
2022-12-11T18:54:58.882Z,18.63
2022-12-11T18:58:01.220Z,18.56
2022-12-11T19:01:12.490Z,18.56
2022-12-11T19:04:14.852Z,18.56
2022-12-11T19:07:16.940Z,18.50
2022-12-11T19:10:19.012Z,18.50
2022-12-11T19:13:21.061Z,18.56
2022-12-11T19:16:25.839Z,18.50
2022-12-11T19:19:28.115Z,18.44
2022-12-11T19:22:30.148Z,18.50
2022-12-11T19:25:32.621Z,18.50
2022-12-11T19:28:34.832Z,18.50
2022-12-11T19:31:37.102Z,18.50
2022-12-11T19:34:39.422Z,18.44
2022-12-11T19:37:41.434Z,18.38
2022-12-11T19:40:44.258Z,18.38
2022-12-11T19:43:46.422Z,18.44
2022-12-11T19:46:48.507Z,18.44
2022-12-11T19:49:51.207Z,18.44
2022-12-11T19:52:53.234Z,18.31
2022-12-11T19:55:55.338Z,18.38
2022-12-11T19:58:57.827Z,18.25
2022-12-11T20:01:59.928Z,18.31
2022-12-11T20:05:02.017Z,18.19
2022-12-11T20:08:35.330Z,18.19
2022-12-11T20:11:27.086Z,18.19
2022-12-11T20:14:29.410Z,18.13
2022-12-11T20:17:33.195Z,18.19
2022-12-11T20:20:35.219Z,18.25
2022-12-11T20:23:37.228Z,18.13
2022-12-11T20:26:39.395Z,18.13
2022-12-11T20:29:41.493Z,18.13
2022-12-11T20:32:44.126Z,18.13
2022-12-11T20:35:46.201Z,18.06
2022-12-11T20:38:48.606Z,18.06
2022-12-11T20:41:50.670Z,18.06
2022-12-11T20:44:52.721Z,18.06
2022-12-11T20:47:54.809Z,18.06
2022-12-11T20:51:00.877Z,18.00
2022-12-11T20:54:02.971Z,18.00
2022-12-11T20:57:05.085Z,18.00
2022-12-11T21:00:09.016Z,18.00
2022-12-11T21:03:11.034Z,18.00
2022-12-11T21:06:31.908Z,17.94
2022-12-11T21:09:34.447Z,17.94
2022-12-11T21:12:38.122Z,17.88
2022-12-11T21:15:41.144Z,17.94
2022-12-11T21:18:44.236Z,17.88
2022-12-11T21:21:47.060Z,17.88
2022-12-11T21:24:49.097Z,17.88
2022-12-11T21:27:51.234Z,17.88
2022-12-11T21:30:53.375Z,17.88
2022-12-11T21:33:55.426Z,17.81
2022-12-11T21:36:57.598Z,17.81
2022-12-11T21:40:00.186Z,17.81
2022-12-11T21:43:02.488Z,17.81
2022-12-11T21:46:05.197Z,17.75
2022-12-11T21:49:08.420Z,17.75
2022-12-11T21:52:10.468Z,17.75
2022-12-11T21:55:13.186Z,17.75
2022-12-11T21:58:15.674Z,17.75
2022-12-11T22:01:22.284Z,17.69
2022-12-11T22:04:24.656Z,17.69
2022-12-11T22:07:27.138Z,17.75
2022-12-11T22:10:29.495Z,17.75
2022-12-11T22:13:31.850Z,17.75
2022-12-11T22:16:35.120Z,17.69
2022-12-11T22:19:37.218Z,17.63
2022-12-11T22:22:39.273Z,17.63
2022-12-11T22:25:41.324Z,17.63
2022-12-11T22:28:43.422Z,17.63
2022-12-11T22:31:45.472Z,17.63
2022-12-11T22:34:47.525Z,17.63
2022-12-11T22:37:49.613Z,17.56
2022-12-11T22:40:52.435Z,17.56
2022-12-11T22:43:55.305Z,17.50
2022-12-11T22:46:57.399Z,17.50
2022-12-11T22:49:59.421Z,17.50
2022-12-11T22:53:01.417Z,17.56
2022-12-11T22:56:07.937Z,17.50
2022-12-11T22:59:10.057Z,17.44
2022-12-11T23:02:12.354Z,17.44
2022-12-11T23:05:14.928Z,17.44
2022-12-11T23:08:17.187Z,17.44
2022-12-11T23:11:31.920Z,17.38
2022-12-11T23:14:34.014Z,17.38
2022-12-11T23:17:36.137Z,17.38
2022-12-11T23:20:38.237Z,17.38
2022-12-11T23:23:41.172Z,17.31
2022-12-11T23:26:43.246Z,17.31
2022-12-11T23:29:45.755Z,17.31
2022-12-11T23:32:47.776Z,17.31
2022-12-11T23:35:50.043Z,17.31
2022-12-11T23:38:55.088Z,17.31
2022-12-11T23:41:57.476Z,17.25
2022-12-11T23:44:59.505Z,17.25
2022-12-11T23:48:01.510Z,17.19
2022-12-11T23:51:05.825Z,17.19
2022-12-11T23:54:07.860Z,17.13
2022-12-11T23:57:10.026Z,17.19
